Dallas, Iowa
Current Conditions -  °F | °C
As of 3:15 AM on Sunday 21 Dec 2014 (Local Time) from KOXV Reporting Station
Overcast Overcast  
Wind Chill: -1°   Ceiling: 2800
Heat Index:   Visibility: 7mi
Dew Point:   Wind: 12mph
Humidity: 93%   Direction: 180°S
Pressure: 30.05"   Gusts: NA
Location:  41.23°N, 93.24°W
Report Text: KOXV 210915Z AUTO 18010KT 7SM FEW012 OVC028 03/02 A3005 RMK AO2
Loading
Personal Weather Stations






























Interactive Weather Map New forecast layout! Learn more

10-Day Weather Forecast

Advertisements
Track Severe Weather on mobile